Time;durP1;ratioP1;P1;durP2;ratioP2;P2;SDS_P1;SDS_P2;PMS_P1;PMS_P2;Temp;Humidity;BMP_temperature;BMP_pressure;BME280_temperature;BME280_humidity;BME280_pressure;Samples;Min_cycle;Max_cycle;Signal;HPM_P1;HPM_P2
2023/01/11 00:00:35;;;;;;;40.60;22.00;;;;;;;4.44;83.96;100728.86;130009;1259;114799;-60
2023/01/11 00:03:51;;;;;;;38.20;23.70;;;;;;;4.39;83.69;100727.15;129943;1276;128684;-63
2023/01/11 00:06:53;;;;;;;44.80;27.50;;;;;;;4.34;83.70;100722.30;130081;1257;114697;-60
2023/01/11 00:10:00;;;;;;;48.20;26.90;;;;;;;4.29;83.52;100722.91;130038;1257;114698;-60
2023/01/11 00:13:03;;;;;;;45.70;25.30;;;;;;;4.22;83.49;100725.48;129906;1258;114782;-60
2023/01/11 00:16:07;;;;;;;38.20;24.20;;;;;;;4.16;83.59;100725.07;130227;1260;115079;-59
2023/01/11 00:19:09;;;;;;;41.40;24.10;;;;;;;4.10;83.55;100719.69;129825;1257;114781;-60
2023/01/11 00:22:11;;;;;;;35.80;21.10;;;;;;;4.04;83.40;100720.49;129934;1257;115290;-59
2023/01/11 00:25:14;;;;;;;37.90;22.10;;;;;;;3.97;83.46;100719.88;130049;1266;114804;-60
2023/01/11 00:28:16;;;;;;;36.40;22.30;;;;;;;3.92;83.39;100721.56;129846;1270;114788;-60
2023/01/11 00:31:18;;;;;;;47.70;24.60;;;;;;;3.85;83.41;100723.60;129922;1259;115670;-59
2023/01/11 00:34:21;;;;;;;41.40;24.30;;;;;;;3.79;83.45;100715.04;130071;1268;114665;-60
2023/01/11 00:37:23;;;;;;;37.70;21.40;;;;;;;3.71;83.26;100709.31;129898;1256;114697;-59
2023/01/11 00:40:26;;;;;;;37.00;20.00;;;;;;;3.61;83.14;100711.58;130010;1254;114730;-59
2023/01/11 00:50:11;;;;;;;43.30;20.40;;;;;;;3.24;82.61;100716.13;129793;1269;114803;-60
2023/01/11 00:53:13;;;;;;;37.80;21.60;;;;;;;3.12;82.54;100719.64;130256;1271;114904;-60
2023/01/11 00:56:16;;;;;;;34.60;19.70;;;;;;;2.99;82.56;100728.25;129966;1258;114705;-60
2023/01/11 00:59:18;;;;;;;36.50;18.40;;;;;;;2.86;82.28;100726.27;129955;1276;114773;-59
2023/01/11 01:02:21;;;;;;;36.50;20.60;;;;;;;2.74;82.46;100723.93;129947;1276;128294;-60
2023/01/11 01:05:23;;;;;;;35.60;19.90;;;;;;;2.61;82.49;100723.17;130187;1267;114703;-59
2023/01/11 01:08:26;;;;;;;36.70;20.30;;;;;;;2.50;82.30;100722.25;129941;1258;114716;-59
2023/01/11 01:11:28;;;;;;;37.30;21.10;;;;;;;2.38;82.31;100722.17;129998;1276;114738;-60
2023/01/11 01:14:32;;;;;;;37.40;19.80;;;;;;;2.28;82.35;100718.91;130182;1260;114774;-59
2023/01/11 01:17:34;;;;;;;37.40;20.30;;;;;;;2.17;82.23;100717.42;129920;1259;115310;-61
2023/01/11 01:20:36;;;;;;;34.40;18.60;;;;;;;2.07;82.28;100723.66;129996;1259;114836;-59
2023/01/11 01:23:39;;;;;;;36.50;18.80;;;;;;;1.98;82.14;100722.48;129954;1259;114721;-61
2023/01/11 01:26:41;;;;;;;39.60;19.10;;;;;;;1.88;82.14;100722.73;130013;1268;114697;-61
2023/01/11 01:29:43;;;;;;;35.90;18.60;;;;;;;1.80;82.20;100721.39;130144;1266;115342;-60
2023/01/11 01:32:46;;;;;;;35.00;19.20;;;;;;;1.70;82.23;100719.16;129975;1272;114867;-60
2023/01/11 01:35:48;;;;;;;40.10;19.50;;;;;;;1.60;82.17;100716.92;129935;1259;114770;-60
2023/01/11 01:38:50;;;;;;;33.20;18.50;;;;;;;1.51;82.27;100713.81;129891;1260;115300;-60
2023/01/11 01:41:52;;;;;;;35.20;19.20;;;;;;;1.41;82.17;100713.34;129867;1257;114706;-59
2023/01/11 01:45:00;;;;;;;35.20;18.30;;;;;;;1.32;82.43;100711.64;130032;1258;115027;-59
2023/01/11 01:48:04;;;;;;;33.60;17.90;;;;;;;1.22;82.20;100708.86;129958;1276;115319;-61
2023/01/11 01:51:07;;;;;;;32.80;18.30;;;;;;;1.13;82.24;100705.55;129929;1255;114912;-60
2023/01/11 01:54:13;;;;;;;36.40;20.10;;;;;;;1.05;81.99;100708.23;129989;1264;114779;-59
2023/01/11 01:57:21;;;;;;;40.60;18.50;;;;;;;0.97;82.32;100707.90;129929;1276;115070;-59
2023/01/11 02:00:24;;;;;;;34.60;18.10;;;;;;;0.90;82.45;100702.12;129587;1260;229051;-62
2023/01/11 02:03:26;;;;;;;42.60;19.20;;;;;;;0.82;82.37;100700.04;130039;1258;115154;-62
2023/01/11 02:06:28;;;;;;;36.00;18.90;;;;;;;0.75;82.11;100690.38;130028;1257;114695;-61
2023/01/11 02:09:45;;;;;;;36.10;18.40;;;;;;;0.70;82.51;100684.43;129987;1254;115154;-62
2023/01/11 02:12:55;;;;;;;35.70;17.00;;;;;;;0.64;82.58;100686.55;129783;1259;114781;-60
2023/01/11 02:16:09;;;;;;;32.60;16.80;;;;;;;0.58;82.76;100683.41;130119;1254;114874;-59
2023/01/11 02:19:49;;;;;;;30.00;14.80;;;;;;;0.53;82.80;100681.11;129956;1266;128564;-60
2023/01/11 02:23:30;;;;;;;30.40;14.80;;;;;;;0.50;82.86;100677.97;129917;1276;115080;-60
2023/01/11 02:26:43;;;;;;;27.10;13.70;;;;;;;0.46;82.79;100670.26;129711;1262;114935;-59
2023/01/11 02:29:57;;;;;;;29.90;13.10;;;;;;;0.44;82.99;100669.02;129822;1269;115155;-59
2023/01/11 02:33:17;;;;;;;29.50;13.40;;;;;;;0.43;83.07;100667.79;129976;1276;114789;-60
2023/01/11 02:36:54;;;;;;;28.70;13.00;;;;;;;0.43;83.10;100659.52;129959;1276;128016;-61
2023/01/11 02:40:16;;;;;;;21.10;11.70;;;;;;;0.43;83.24;100654.44;129995;1266;115129;-59
2023/01/11 02:47:03;;;;;;;23.80;10.70;;;;;;;0.44;83.48;100646.88;129951;1254;114777;-60
2023/01/11 02:50:38;;;;;;;23.20;10.80;;;;;;;0.45;83.39;100643.38;129917;1257;115133;-60
2023/01/11 02:53:47;;;;;;;25.40;10.20;;;;;;;0.45;83.50;100643.19;129365;1283;128891;-60
2023/01/11 02:56:53;;;;;;;21.10;11.10;;;;;;;0.46;83.51;100632.30;129182;1267;116527;-59
2023/01/11 02:59:57;;;;;;;20.00;10.40;;;;;;;0.47;83.38;100630.70;129283;1268;115419;-61
2023/01/11 03:03:29;;;;;;;22.40;11.50;;;;;;;0.47;83.38;100627.02;129272;1265;114838;-60
2023/01/11 03:06:33;;;;;;;22.70;10.90;;;;;;;0.48;83.46;100630.88;129512;1264;115781;-60
2023/01/11 03:10:03;;;;;;;24.90;11.30;;;;;;;0.49;83.38;100628.08;129192;1259;127847;-60
2023/01/11 03:13:09;;;;;;;22.00;11.40;;;;;;;0.50;83.37;100633.17;129365;1282;116377;-61
2023/01/11 03:16:11;;;;;;;;;;;;;;;0.50;83.14;100631.92;129254;1266;114827;-62
2023/01/11 03:19:42;;;;;;;19.90;11.00;;;;;;;0.50;83.30;100629.13;129566;1264;115020;-60
2023/01/11 03:22:56;;;;;;;19.60;10.60;;;;;;;0.52;83.32;100625.06;129440;1261;114799;-61
2023/01/11 03:26:00;;;;;;;25.00;12.70;;;;;;;0.52;83.33;100622.43;129360;1283;129755;-60
2023/01/11 03:29:10;;;;;;;23.90;11.40;;;;;;;0.53;83.16;100624.02;129588;1263;115333;-60
2023/01/11 03:32:40;;;;;;;23.30;11.20;;;;;;;0.53;83.41;100615.58;129863;1261;114830;-60
2023/01/11 03:35:49;;;;;;;25.90;13.10;;;;;;;0.54;83.45;100606.95;129980;1260;114799;-60
2023/01/11 03:39:13;;;;;;;25.90;15.20;;;;;;;0.54;83.34;100604.85;129987;1254;116243;-60
2023/01/11 03:42:16;;;;;;;29.20;15.80;;;;;;;0.55;83.25;100602.22;130098;1276;127711;-59
2023/01/11 03:45:18;;;;;;;27.80;15.50;;;;;;;0.56;83.39;100604.67;130020;1268;114958;-59
2023/01/11 03:48:26;;;;;;;29.50;16.50;;;;;;;0.56;83.38;100599.92;129991;1271;115295;-60
2023/01/11 03:51:31;;;;;;;27.10;15.70;;;;;;;0.57;83.37;100598.17;129976;1276;114711;-60
2023/01/11 03:54:35;;;;;;;27.40;14.30;;;;;;;0.57;83.31;100593.95;129959;1254;115321;-62
2023/01/11 03:57:43;;;;;;;22.70;12.90;;;;;;;0.58;83.46;100587.27;130027;1259;128682;-60
2023/01/11 04:00:47;;;;;;;20.20;12.40;;;;;;;0.61;83.50;100582.51;129772;1276;115062;-59
2023/01/11 04:03:49;;;;;;;24.50;12.60;;;;;;;0.64;83.63;100581.27;130025;1253;116270;-61
2023/01/11 04:06:51;;;;;;;25.20;11.90;;;;;;;0.65;83.41;100576.70;130035;1264;115372;-59
2023/01/11 04:09:54;;;;;;;25.80;11.60;;;;;;;0.67;83.53;100573.52;129960;1257;114711;-61
2023/01/11 04:12:56;;;;;;;19.20;10.20;;;;;;;0.67;83.51;100568.25;130079;1257;115132;-60
2023/01/11 04:15:59;;;;;;;18.50;9.10;;;;;;;0.66;83.25;100561.73;129592;1261;128312;-59
2023/01/11 04:19:01;;;;;;;18.20;8.60;;;;;;;0.67;83.05;100561.21;130084;1254;114802;-63
2023/01/11 04:22:04;;;;;;;19.50;8.20;;;;;;;0.67;83.18;100559.11;130054;1254;114779;-60
2023/01/11 04:25:08;;;;;;;15.90;8.30;;;;;;;0.66;83.12;100553.67;130057;1258;114688;-60
2023/01/11 04:28:10;;;;;;;18.10;8.20;;;;;;;0.65;82.99;100549.28;129994;1254;114802;-60
2023/01/11 04:31:13;;;;;;;15.60;7.60;;;;;;;0.64;82.95;100543.84;130006;1258;114859;-60
2023/01/11 04:34:15;;;;;;;12.80;7.50;;;;;;;0.62;83.06;100543.48;130034;1257;115494;-61
2023/01/11 04:37:18;;;;;;;14.10;8.30;;;;;;;0.60;82.74;100542.26;130016;1258;115112;-60
2023/01/11 04:40:21;;;;;;;18.30;8.30;;;;;;;0.58;82.64;100539.98;130213;1258;115377;-62
2023/01/11 04:43:23;;;;;;;23.20;7.60;;;;;;;0.55;82.81;100538.77;130103;1258;114760;-59
2023/01/11 04:46:26;;;;;;;18.40;8.90;;;;;;;0.54;82.82;100540.00;130049;1254;114709;-59
2023/01/11 04:49:28;;;;;;;14.80;8.10;;;;;;;0.50;82.94;100538.08;130220;1257;114856;-60
2023/01/11 04:52:30;;;;;;;19.80;8.70;;;;;;;0.48;82.75;100534.23;129785;1260;128462;-59
2023/01/11 04:55:32;;;;;;;20.00;8.20;;;;;;;0.44;82.71;100533.55;130080;1276;114893;-60
2023/01/11 04:58:35;;;;;;;16.90;8.90;;;;;;;0.41;82.61;100527.23;130205;1269;115155;-61
2023/01/11 05:01:37;;;;;;;13.70;8.50;;;;;;;0.38;82.70;100526.20;130125;1263;114699;-60
2023/01/11 05:04:39;;;;;;;15.70;7.80;;;;;;;0.35;82.60;100514.95;130031;1258;114804;-61
2023/01/11 05:07:42;;;;;;;15.70;7.90;;;;;;;0.32;82.76;100509.17;130097;1267;114885;-62
2023/01/11 05:10:51;;;;;;;17.40;8.10;;;;;;;0.28;82.50;100508.48;130126;1276;114861;-62
2023/01/11 05:13:53;;;;;;;18.00;8.20;;;;;;;0.26;82.44;100509.55;130055;1267;128704;-60
2023/01/11 05:16:56;;;;;;;20.80;9.50;;;;;;;0.23;82.59;100498.49;130065;1258;114689;-60
2023/01/11 05:19:58;;;;;;;12.90;8.70;;;;;;;0.20;82.84;100489.38;130091;1256;114870;-59
2023/01/11 05:23:00;;;;;;;18.20;8.70;;;;;;;0.17;82.68;100483.23;130001;1267;114782;-60
2023/01/11 05:26:05;;;;;;;13.80;8.00;;;;;;;0.17;82.78;100484.13;129814;1257;114939;-60
2023/01/11 05:29:10;;;;;;;20.40;10.20;;;;;;;0.17;82.85;100475.34;130093;1276;114766;-60
2023/01/11 05:32:12;;;;;;;14.40;7.40;;;;;;;0.16;82.93;100473.59;129928;1276;128135;-60
2023/01/11 05:35:14;;;;;;;18.00;7.50;;;;;;;0.16;82.82;100472.70;130029;1257;114831;-60
2023/01/11 05:38:16;;;;;;;13.90;7.60;;;;;;;0.17;82.89;100479.39;130064;1254;115222;-60
2023/01/11 05:41:20;;;;;;;16.70;7.50;;;;;;;0.20;82.95;100474.08;129956;1257;114787;-61
2023/01/11 05:47:44;;;;;;;14.30;7.00;;;;;;;0.25;82.84;100475.83;129755;1260;114957;-61
2023/01/11 05:50:54;;;;;;;9.20;5.70;;;;;;;0.25;82.89;100470.92;129953;1258;115152;-61
2023/01/11 05:53:57;;;;;;;16.40;7.20;;;;;;;0.26;82.71;100474.06;130060;1276;115063;-62
2023/01/11 05:56:59;;;;;;;15.80;6.00;;;;;;;0.27;82.51;100472.65;130102;1255;115068;-60
2023/01/11 06:00:03;;;;;;;22.40;6.90;;;;;;;0.28;82.49;100478.45;130034;1257;115313;-60
2023/01/11 06:03:08;;;;;;;18.80;6.40;;;;;;;0.28;82.49;100473.00;129972;1257;114697;-60
2023/01/11 06:06:10;;;;;;;;;;;;;;;0.28;82.54;100467.73;129779;1276;128584;-63
2023/01/11 06:09:12;;;;;;;11.20;5.50;;;;;;;0.27;82.60;100461.93;130069;1253;114717;-61
2023/01/11 06:12:15;;;;;;;12.10;5.40;;;;;;;0.28;82.57;100461.59;129942;1276;114750;-60
2023/01/11 06:15:17;;;;;;;9.90;5.70;;;;;;;0.28;82.43;100458.60;130093;1258;114818;-63
2023/01/11 06:18:20;;;;;;;11.50;5.80;;;;;;;0.28;82.55;100457.02;129817;1257;114965;-63
2023/01/11 06:21:23;;;;;;;13.60;6.00;;;;;;;0.28;82.33;100459.13;130179;1257;114702;-64
2023/01/11 06:24:26;;;;;;;10.40;6.90;;;;;;;0.28;82.39;100459.48;130220;1267;114716;-62
2023/01/11 06:27:28;;;;;;;13.70;6.40;;;;;;;0.28;82.30;100454.04;129801;1276;114889;-63
2023/01/11 06:30:30;;;;;;;10.80;6.00;;;;;;;0.27;82.23;100458.61;129927;1276;114756;-61
2023/01/11 06:33:35;;;;;;;;;;;;;;;0.28;82.34;100452.45;129742;1276;115437;-61
2023/01/11 06:36:38;;;;;;;12.90;5.90;;;;;;;0.27;82.34;100447.36;129881;1258;114705;-64
2023/01/11 06:39:40;;;;;;;13.70;6.20;;;;;;;0.27;82.29;100448.06;129935;1276;114687;-64
2023/01/11 06:42:42;;;;;;;11.80;6.70;;;;;;;0.29;82.25;100448.58;130067;1253;114770;-63
2023/01/11 06:45:44;;;;;;;12.30;5.90;;;;;;;0.28;82.38;100448.59;129855;1266;128719;-64
2023/01/11 06:48:47;;;;;;;8.90;5.70;;;;;;;0.30;82.06;100446.12;129927;1260;114856;-64
2023/01/11 06:51:52;;;;;;;11.00;5.30;;;;;;;0.33;82.24;100440.66;130034;1252;114662;-63
2023/01/11 06:54:54;;;;;;;9.00;5.30;;;;;;;0.34;82.12;100442.06;129960;1257;115313;-63
2023/01/11 06:57:57;;;;;;;15.40;6.00;;;;;;;0.36;82.00;100444.85;129862;1256;114789;-64
2023/01/11 07:00:59;;;;;;;10.00;5.20;;;;;;;0.39;82.02;100441.51;129987;1259;114860;-64
2023/01/11 07:04:01;;;;;;;11.60;6.30;;;;;;;0.42;82.04;100450.80;129789;1276;114926;-60
2023/01/11 07:07:04;;;;;;;14.20;6.30;;;;;;;0.43;81.98;100455.35;129965;1266;115843;-61
2023/01/11 07:10:12;;;;;;;12.60;6.20;;;;;;;0.45;81.95;100457.11;130042;1267;114728;-63
2023/01/11 07:13:16;;;;;;;11.20;5.90;;;;;;;0.47;81.98;100451.66;130014;1257;114664;-64
2023/01/11 07:16:18;;;;;;;13.40;6.70;;;;;;;0.50;82.09;100447.60;129990;1253;115074;-64
2023/01/11 07:19:20;;;;;;;10.10;5.60;;;;;;;0.54;81.95;100450.02;130009;1253;114745;-64
2023/01/11 07:22:23;;;;;;;16.20;6.30;;;;;;;0.57;82.07;100442.80;130007;1254;114762;-64
2023/01/11 07:25:28;;;;;;;11.90;5.80;;;;;;;0.63;81.79;100442.77;130077;1258;114746;-63
2023/01/11 07:28:31;;;;;;;9.70;5.50;;;;;;;0.68;82.04;100441.33;129876;1257;115221;-63
2023/01/11 07:31:33;;;;;;;12.00;6.80;;;;;;;0.74;81.91;100441.65;130063;1276;114703;-61
2023/01/11 07:34:36;;;;;;;13.20;6.50;;;;;;;0.80;81.78;100437.73;130014;1276;114816;-63
2023/01/11 07:37:40;;;;;;;9.60;6.10;;;;;;;0.85;81.88;100435.59;130140;1254;114752;-61
2023/01/11 07:40:42;;;;;;;11.80;5.60;;;;;;;0.92;81.84;100430.08;130023;1257;114687;-61
2023/01/11 07:43:45;;;;;;;10.90;6.00;;;;;;;1.00;81.62;100430.02;130000;1267;115806;-64
2023/01/11 07:46:47;;;;;;;14.80;6.20;;;;;;;1.10;81.76;100430.11;130081;1268;114691;-63
2023/01/11 07:49:49;;;;;;;9.50;5.60;;;;;;;1.19;81.88;100427.39;129982;1276;114981;-63
2023/01/11 07:52:51;;;;;;;12.00;6.00;;;;;;;1.29;81.87;100425.02;129994;1257;115214;-64
2023/01/11 07:55:55;;;;;;;10.40;5.50;;;;;;;1.41;81.47;100421.20;129910;1257;114721;-63
2023/01/11 07:58:57;;;;;;;8.80;5.10;;;;;;;1.55;81.35;100418.60;129921;1257;114757;-64
2023/01/11 08:01:59;;;;;;;9.90;5.20;;;;;;;1.70;81.11;100420.55;129992;1253;114689;-63
2023/01/11 08:05:02;;;;;;;8.00;5.00;;;;;;;1.87;80.94;100421.06;129936;1276;128912;-64
2023/01/11 08:08:05;;;;;;;10.50;5.20;;;;;;;2.00;80.60;100411.04;129944;1276;114820;-62
2023/01/11 08:14:38;;;;;;;10.50;5.00;;;;;;;2.25;80.61;100399.79;129873;1258;114691;-64
2023/01/11 08:17:40;;;;;;;7.30;4.70;;;;;;;2.37;80.15;100398.91;129895;1258;114627;-61
2023/01/11 08:20:44;;;;;;;11.50;5.40;;;;;;;2.46;79.91;100391.40;129934;1270;114770;-64
2023/01/11 08:23:47;;;;;;;13.30;5.50;;;;;;;2.51;79.80;100387.08;129949;1257;115813;-63
2023/01/11 08:26:49;;;;;;;11.30;5.90;;;;;;;2.58;79.75;100395.45;129999;1257;114811;-64
2023/01/11 08:29:51;;;;;;;10.90;5.00;;;;;;;2.65;79.31;100398.70;130030;1257;114824;-63
2023/01/11 08:32:53;;;;;;;9.80;5.60;;;;;;;2.72;79.26;100397.70;129728;1258;116239;-64
2023/01/11 08:35:56;;;;;;;11.30;6.00;;;;;;;2.82;79.08;100392.60;129939;1259;114690;-63
2023/01/11 08:38:58;;;;;;;9.40;5.60;;;;;;;2.93;79.16;100389.79;129948;1257;114805;-64
2023/01/11 08:42:02;;;;;;;11.90;5.50;;;;;;;3.05;79.34;100387.64;130039;1253;114828;-63
2023/01/11 08:45:04;;;;;;;10.70;5.50;;;;;;;3.18;78.78;100386.36;130006;1253;117223;-64
2023/01/11 08:48:07;;;;;;;10.50;5.80;;;;;;;3.31;78.86;100389.27;129965;1253;115135;-63
2023/01/11 08:51:09;;;;;;;13.60;4.80;;;;;;;3.45;78.95;100388.16;130090;1253;114828;-64
2023/01/11 08:54:13;;;;;;;7.40;4.50;;;;;;;3.60;78.66;100385.05;129985;1253;115129;-63
2023/01/11 08:57:15;;;;;;;9.50;4.50;;;;;;;3.76;78.70;100383.67;129995;1257;114734;-65
2023/01/11 09:00:18;;;;;;;8.60;4.80;;;;;;;3.97;78.86;100381.14;130011;1257;115398;-64
2023/01/11 09:03:20;;;;;;;8.80;4.60;;;;;;;4.20;78.68;100384.35;129945;1260;115303;-64
2023/01/11 09:06:23;;;;;;;12.40;5.80;;;;;;;4.42;78.28;100384.91;129886;1257;114727;-65
2023/01/11 09:09:25;;;;;;;15.30;5.00;;;;;;;4.61;77.58;100374.05;130242;1256;114763;-64
2023/01/11 09:12:27;;;;;;;23.50;13.40;;;;;;;4.76;77.38;100376.52;130086;1269;114765;-65
2023/01/11 09:15:29;;;;;;;25.30;15.20;;;;;;;4.89;77.37;100377.98;129922;1276;114917;-65
2023/01/11 09:18:31;;;;;;;20.50;10.80;;;;;;;5.02;77.43;100376.23;129885;1276;114812;-64
2023/01/11 09:21:33;;;;;;;12.40;7.40;;;;;;;5.14;77.17;100370.79;129912;1257;114738;-71
2023/01/11 09:24:36;;;;;;;19.80;15.80;;;;;;;5.26;76.66;100372.77;130129;1253;115150;-69
2023/01/11 09:27:42;;;;;;;11.10;8.10;;;;;;;5.39;76.19;100371.88;130002;1260;115213;-70
2023/01/11 09:30:44;;;;;;;19.70;9.40;;;;;;;5.50;75.70;100368.95;130122;1252;114723;-67
2023/01/11 09:33:46;;;;;;;15.40;6.60;;;;;;;5.60;75.93;100366.21;129998;1268;114961;-69
2023/01/11 09:36:48;;;;;;;12.90;5.90;;;;;;;5.70;75.72;100359.70;130386;1253;114792;-70
2023/01/11 09:39:51;;;;;;;12.20;6.80;;;;;;;5.75;74.92;100351.94;129844;1258;127749;-68
2023/01/11 09:42:58;;;;;;;12.40;6.20;;;;;;;5.83;74.91;100351.53;129987;1256;114771;-66
2023/01/11 09:46:04;;;;;;;12.30;6.40;;;;;;;5.90;74.32;100348.16;130067;1269;114705;-66
2023/01/11 09:49:12;;;;;;;24.30;14.50;;;;;;;5.94;74.13;100336.15;129974;1256;114847;-69
2023/01/11 09:52:37;;;;;;;16.50;8.50;;;;;;;6.00;74.13;100329.63;130127;1258;114694;-66
2023/01/11 09:55:42;;;;;;;9.90;5.00;;;;;;;6.05;73.64;100330.36;130022;1268;128802;-67
2023/01/11 09:58:50;;;;;;;12.50;8.50;;;;;;;6.07;73.17;100326.21;129862;1257;114705;-66
2023/01/11 10:02:08;;;;;;;19.80;9.70;;;;;;;6.13;73.40;100325.52;129930;1253;115314;-66
2023/01/11 10:05:18;;;;;;;12.60;7.00;;;;;;;6.21;72.83;100322.62;129932;1254;114790;-68
2023/01/11 10:08:41;;;;;;;12.60;6.70;;;;;;;6.28;72.55;100315.46;129950;1256;114687;-67
2023/01/11 10:11:43;;;;;;;15.30;6.30;;;;;;;6.36;72.23;100310.98;130010;1256;128348;-68
2023/01/11 10:15:04;;;;;;;22.30;12.90;;;;;;;6.43;71.63;100309.33;129829;1271;115162;-68
2023/01/11 10:18:26;;;;;;;17.00;6.40;;;;;;;6.52;71.89;100306.90;129864;1256;114731;-68
2023/01/11 10:21:48;;;;;;;9.80;5.60;;;;;;;6.64;72.06;100300.99;129650;1259;114817;-65
2023/01/11 10:24:56;;;;;;;12.20;7.20;;;;;;;6.78;72.01;100302.67;129607;1254;114791;-66
2023/01/11 10:28:03;;;;;;;16.90;6.80;;;;;;;6.92;71.57;100298.66;129890;1273;127779;-62
2023/01/11 10:31:47;;;;;;;9.60;5.10;;;;;;;7.06;71.73;100291.77;129675;1260;116320;-69
2023/01/11 10:35:16;;;;;;;13.40;6.90;;;;;;;7.21;70.88;100284.34;129957;1272;114805;-62
2023/01/11 10:39:02;;;;;;;14.70;7.20;;;;;;;7.27;70.69;100282.35;129888;1257;115277;-67
2023/01/11 10:42:10;;;;;;;28.50;18.20;;;;;;;7.35;70.62;100267.14;129907;1258;114697;-66
2023/01/11 10:45:21;;;;;;;11.80;5.60;;;;;;;7.39;70.23;100258.80;129905;1268;128836;-65
2023/01/11 10:48:28;;;;;;;10.00;5.10;;;;;;;7.43;70.24;100261.32;129944;1259;116327;-65
2023/01/11 10:51:37;;;;;;;12.40;6.50;;;;;;;7.45;69.91;100253.06;129830;1253;115114;-66
2023/01/11 10:54:44;;;;;;;15.40;6.70;;;;;;;7.47;69.43;100241.27;129564;1260;114755;-62
2023/01/11 10:58:17;;;;;;;10.30;5.00;;;;;;;7.47;69.48;100235.59;129905;1255;114699;-66
2023/01/11 11:01:35;;;;;;;10.10;5.30;;;;;;;7.49;68.99;100228.95;129705;1275;128063;-68
2023/01/11 11:05:16;;;;;;;10.60;5.00;;;;;;;7.49;69.08;100221.33;129950;1267;115317;-66
2023/01/11 11:08:27;;;;;;;11.40;6.80;;;;;;;7.50;68.69;100213.64;129980;1257;114808;-68
2023/01/11 11:11:51;;;;;;;10.70;5.40;;;;;;;7.50;67.90;100207.58;129803;1258;114821;-66
2023/01/11 11:15:00;;;;;;;12.40;5.50;;;;;;;7.54;68.07;100200.68;129583;1258;114765;-69
2023/01/11 11:18:03;;;;;;;11.90;7.30;;;;;;;7.58;67.99;100193.38;129836;1257;129147;-67
2023/01/11 11:21:10;;;;;;;14.40;6.20;;;;;;;7.64;67.71;100192.30;129917;1269;114789;-68
2023/01/11 11:24:26;;;;;;;8.10;4.10;;;;;;;7.71;67.96;100184.73;129895;1253;114670;-69
2023/01/11 11:27:39;;;;;;;6.30;3.80;;;;;;;7.74;67.43;100183.16;129830;1257;115020;-71
2023/01/11 11:30:43;;;;;;;11.00;5.50;;;;;;;7.76;67.04;100175.66;129920;1257;114745;-67
2023/01/11 11:33:45;;;;;;;10.50;5.30;;;;;;;7.72;65.98;100163.70;129774;1271;128652;-67
2023/01/11 11:36:49;;;;;;;9.40;3.60;;;;;;;7.69;66.20;100148.21;129806;1253;114771;-69
2023/01/11 11:39:53;;;;;;;8.40;3.70;;;;;;;7.67;66.20;100136.70;129659;1267;114873;-71
2023/01/11 11:43:13;;;;;;;13.60;4.60;;;;;;;7.68;66.45;100137.55;129978;1253;114717;-67
2023/01/11 11:46:26;;;;;;;10.80;3.60;;;;;;;7.72;67.06;100137.39;129809;1256;115321;-66
2023/01/11 11:49:30;;;;;;;12.60;3.60;;;;;;;7.76;66.60;100136.17;129944;1269;127479;-70
2023/01/11 11:52:33;;;;;;;11.00;3.80;;;;;;;7.80;66.86;100134.05;130026;1275;115267;-68
2023/01/11 11:55:35;;;;;;;8.40;3.80;;;;;;;7.86;67.16;100126.71;130148;1257;114618;-69
2023/01/11 11:58:39;;;;;;;10.80;4.40;;;;;;;7.90;66.26;100121.73;130096;1256;115149;-66
2023/01/11 12:01:45;;;;;;;8.70;3.50;;;;;;;7.89;66.51;100112.70;129674;1273;114885;-66
2023/01/11 12:04:48;;;;;;;7.90;3.80;;;;;;;7.90;66.55;100116.06;129901;1268;114697;-67
2023/01/11 12:07:51;;;;;;;16.00;4.80;;;;;;;7.90;66.14;100114.80;129933;1273;114814;-66
2023/01/11 12:10:59;;;;;;;;;;;;;;;7.88;66.65;100105.98;130001;1257;115107;-64
2023/01/11 12:14:10;;;;;;;11.30;5.10;;;;;;;7.87;66.64;100108.69;129894;1258;114698;-60
2023/01/11 12:17:23;;;;;;;8.90;4.30;;;;;;;7.84;66.44;100104.01;130527;1253;114814;-64
2023/01/11 12:20:31;;;;;;;7.70;4.00;;;;;;;7.80;66.49;100110.23;129672;1261;114853;-65
2023/01/11 12:23:34;;;;;;;10.90;6.10;;;;;;;7.76;66.44;100110.95;130058;1266;129006;-65
2023/01/11 12:27:01;;;;;;;23.40;12.40;;;;;;;7.72;66.56;100113.56;129909;1258;114780;-65
2023/01/11 12:30:41;;;;;;;36.30;22.20;;;;;;;7.71;67.01;100110.23;129895;1253;114849;-65
2023/01/11 12:33:55;;;;;;;13.90;8.10;;;;;;;7.70;67.27;100106.55;129931;1254;114799;-64
2023/01/11 12:37:24;;;;;;;13.00;6.40;;;;;;;7.69;66.93;100104.27;129914;1276;114969;-64
2023/01/11 12:40:38;;;;;;;14.30;7.70;;;;;;;7.67;66.95;100096.33;129867;1276;127789;-65
2023/01/11 12:43:50;;;;;;;13.10;4.70;;;;;;;7.66;66.57;100099.98;129983;1258;114723;-65
2023/01/11 12:47:14;;;;;;;9.20;5.00;;;;;;;7.64;66.38;100095.06;130086;1276;114780;-62
2023/01/11 12:50:20;;;;;;;9.60;4.80;;;;;;;7.63;66.73;100095.63;129979;1258;114722;-65
2023/01/11 12:53:23;;;;;;;11.30;3.60;;;;;;;7.65;66.42;100089.52;130107;1276;115369;-64
2023/01/11 12:56:28;;;;;;;8.60;3.80;;;;;;;7.65;66.38;100083.48;130179;1259;114729;-61
2023/01/11 13:00:07;;;;;;;13.00;6.70;;;;;;;7.64;66.19;100080.83;130174;1268;114802;-65
2023/01/11 13:03:25;;;;;;;17.30;9.90;;;;;;;7.65;66.41;100077.09;130154;1270;114638;-63
2023/01/11 13:07:05;;;;;;;12.60;7.60;;;;;;;7.65;66.71;100065.34;130011;1257;114775;-61
2023/01/11 13:10:27;;;;;;;10.10;6.90;;;;;;;7.64;66.18;100057.56;130040;1276;114940;-65
2023/01/11 13:13:56;;;;;;;10.10;5.50;;;;;;;7.63;66.13;100061.86;130034;1276;130124;-64
2023/01/11 13:17:35;;;;;;;16.70;8.40;;;;;;;7.60;66.25;100061.09;130018;1253;115178;-64
2023/01/11 13:20:43;;;;;;;14.30;9.30;;;;;;;7.60;66.63;100063.05;129426;1259;114865;-60
2023/01/11 13:23:53;;;;;;;9.50;5.40;;;;;;;7.59;66.35;100066.27;129483;1260;114944;-65
2023/01/11 13:27:04;;;;;;;13.10;6.40;;;;;;;7.59;66.38;100065.23;129488;1282;114927;-64
2023/01/11 13:30:10;;;;;;;18.10;9.20;;;;;;;7.56;66.17;100061.25;129480;1283;127873;-65
2023/01/11 13:33:23;;;;;;;15.80;9.90;;;;;;;7.53;66.24;100060.31;129379;1269;115270;-64
2023/01/11 13:36:31;;;;;;;39.30;21.70;;;;;;;7.50;66.36;100059.54;129265;1265;114822;-64
2023/01/11 13:39:43;;;;;;;31.10;22.20;;;;;;;7.50;66.33;100057.44;129314;1263;114765;-65
2023/01/11 13:42:50;;;;;;;14.10;7.70;;;;;;;7.45;65.92;100051.38;129430;1263;114933;-63
2023/01/11 13:46:20;;;;;;;14.10;6.60;;;;;;;7.42;66.26;100048.49;129168;1272;128797;-61
2023/01/11 13:50:03;;;;;;;20.10;8.80;;;;;;;7.37;66.67;100038.73;128697;1283;115440;-62
2023/01/11 13:53:14;;;;;;;28.30;17.30;;;;;;;7.33;66.20;100031.10;128026;1277;115683;-63
2023/01/11 13:56:22;;;;;;;26.90;18.90;;;;;;;7.29;66.44;100037.45;128178;1274;114824;-65
2023/01/11 13:59:34;;;;;;;17.80;11.20;;;;;;;7.27;66.59;100039.69;128697;1271;114893;-61
2023/01/11 14:02:47;;;;;;;18.20;7.00;;;;;;;7.23;66.67;100044.64;128427;1292;128704;-61
2023/01/11 14:06:31;;;;;;;15.20;5.70;;;;;;;7.20;67.14;100045.11;128654;1270;115277;-65
2023/01/11 14:09:57;;;;;;;12.20;5.70;;;;;;;7.16;67.01;100036.02;128616;1273;115072;-59
2023/01/11 14:14:11;;;;;;;10.90;5.10;;;;;;;7.11;67.00;100028.25;128552;1270;114775;-62
2023/01/11 14:16:55;;;;;;;11.90;5.80;;;;;;;7.04;67.07;100021.05;128441;1277;114820;-62
2023/01/11 14:20:12;;;;;;;10.70;5.10;;;;;;;6.98;67.38;100024.64;128500;1291;128456;-62
2023/01/11 14:23:18;;;;;;;7.80;4.20;;;;;;;6.94;67.23;100020.58;128570;1291;115308;-65
2023/01/11 14:26:45;;;;;;;13.30;4.90;;;;;;;6.90;67.33;100015.56;128843;1262;114829;-65
2023/01/11 14:30:04;;;;;;;10.40;4.90;;;;;;;6.86;67.55;100020.36;129601;1256;114810;-63
2023/01/11 14:33:34;;;;;;;8.90;4.20;;;;;;;6.81;67.78;100014.83;129739;1277;114793;-64